Estación Meteorológica Peña el Pijo (Robertgarden) [ 09/22/18 22:15:20 CEST ]

Fecha Hora Presion(HPa) Temp (°C) Humedad % Rocio (°C) Viento ( m/s) Direccion Lluvia 1Hora(mm) Lluvia 24H(mm) LLuvia Total(mm)
2018-Jan-14 01:01:49 1006.200 3.8 68 -1.6 1.5 WNW     36.26
2018-Jan-14 02:01:40 1005.700 3.1 75 -0.9         36.26
2018-Jan-14 03:01:44 1005.800 3.3 75 -0.7         36.26
2018-Jan-14 04:01:47 1005.800 3.4 76 -0.4         36.26
2018-Jan-14 05:10:06 1006.000 3.0 77 -0.6         36.26
2018-Jan-14 06:01:46 1005.700 3.2 75 -0.8         36.26
2018-Jan-14 07:01:44 1005.700 3.1 75 -0.9         36.26
2018-Jan-14 08:01:38 1005.800 3.5 74 -0.7         36.26
2018-Jan-14 09:01:53 1006.100 3.1 75 -0.9         36.26
2018-Jan-14 10:01:44 1006.300 3.1 78 -0.4         36.26
2018-Jan-14 11:01:52 1006.400 4.2 76 0.3         36.26
2018-Jan-14 12:01:43 1006.400 5.1 73 0.6         36.26
2018-Jan-14 13:01:42 1005.500 6.2 66 0.3         36.26
2018-Jan-14 14:01:41 1004.500 8.1 61 1.0         36.26
2018-Jan-14 15:02:07 1004.100 7.4 59 -0.1         36.26
2018-Jan-14 16:01:54 1004.400 5.9 65 -0.2         36.26
2018-Jan-14 17:01:42 1004.900 2.5 76 -1.3     1.03 1.03 37.29
2018-Jan-14 18:01:44 1005.100 1.3 80 -1.8     1.03 2.07 38.33
2018-Jan-14 19:01:56 1005.400 0.8 82 -2.0       2.07 38.33
2018-Jan-14 20:01:28 1005.900 0.6 83 -2.0       2.07 38.33
2018-Jan-14 21:01:46 1006.200 0.5 83 -2.1       2.07 38.33
2018-Jan-14 22:31:48 1006.900 0.5 84 -1.9       2.07 38.33
2018-Jan-14 23:32:04 1007.700 0.5 85 -1.8       2.07 38.33

Temperatura Máxima:    Temperatura Mínima:
Presión Máxima:1007.700 Hpa    Presión Mínima:1004.100 Hpa


Volver